Scf Progress — A8YG9 — position and weather

sailwx.info

Track history (hours):
 
Tides and Currents Weather Stations Pressure Air Temp Water Temp Dewpoint Dewpoint Depression Visibility Wind Speed Wind Dir Waves Ship Positions

Scf Progress

Last reported at 2018-Feb-08 17:30 UTC. Time now 2018-Feb-23 22:43 UTC.
Position N 09°17' W 079°55'.
Warning: this ship's position is 15 days out of date.

Length 228 m; draft 12 m.

Type: Tanker. MMSI: 636015052.

Date/timePositionNaut miles runAvg speedWind from/ knotsBaromVisibWave heightAir tempDewpointWater temp
2018-Feb-08 17:30N 09°17' W 079°55'0 0.5
2018-Feb-08 17:00N 09°17' W 079°55'3 3.4
2018-Feb-08 16:00N 09°21' W 079°55'6 5.8
2018-Feb-08 15:00N 09°26' W 079°56'1 0.0
2018-Feb-08 01:08N 09°26' W 079°57'0 0.0
2018-Feb-08 00:44N 09°26' W 079°57'0 0.0
2018-Feb-08 00:26N 09°26' W 079°57'0 0.1
2018-Feb-07 23:59N 09°26' W 079°57'0 0.6
2018-Feb-07 23:30N 09°26' W 079°57'3 5.7
2018-Feb-07 23:00N 09°28' W 079°54'611.3
2018-Feb-07 22:30N 09°33' W 079°52'148128.9
2018-Feb-05 19:15N 29°42' W 094°60'  
2018-Feb-02 11:15N 29°28' W 094°51'311.2
2018-Feb-02 11:00N 29°30' W 094°52'510.6
2018-Feb-02 10:30N 29°34' W 094°56'510.1
2018-Feb-02 10:00N 29°39' W 094°58'5 9.1
2018-Feb-02 09:30N 29°43' W 095°01'3 6.8
2018-Feb-02 09:00N 29°45' W 095°04'2 0.1
2018-Feb-01 08:47N 29°45' W 095°06'0 0.0
2018-Jan-31 10:23N 29°45' W 095°06'0 0.0
2018-Jan-31 08:47N 29°45' W 095°06'0 0.0
2018-Jan-31 08:23N 29°45' W 095°06'0 0.0
2018-Jan-31 07:53N 29°45' W 095°06'0 0.0
2018-Jan-31 07:14N 29°45' W 095°06'0 0.0
2018-Jan-31 06:59N 29°45' W 095°06'0 0.0
2018-Jan-31 03:26N 29°45' W 095°06'0 0.0
2018-Jan-31 03:00N 29°45' W 095°06'1 2.8
2018-Jan-31 02:30N 29°46' W 095°05'4 7.6
2018-Jan-31 02:00N 29°44' W 095°01'4 8.6
2018-Jan-31 01:30N 29°40' W 094°59'612.0
2018-Jan-31 01:01N 29°35' W 094°56'1514.6
2018-Jan-31 00:00N 29°22' W 094°48'13 9.3
2018-Jan-30 22:36N 29°18' W 094°33'0 1.0
2018-Jan-30 22:26N 29°18' W 094°34'1 0.2
2018-Jan-30 16:18N 29°17' W 094°35'1 4.0
2018-Jan-30 16:00N 29°17' W 094°36'4 8.2
2018-Jan-30 15:30N 29°19' W 094°39'714.3
2018-Jan-30 15:00N 29°21' W 094°47'714.3
2018-Jan-30 14:30N 29°28' W 094°51'1312.5
2018-Jan-30 13:30N 29°39' W 094°58'510.3
2018-Jan-30 13:00N 29°43' W 095°01'2 3.2
2018-Jan-30 12:23N 29°44' W 095°03'  
Track history (hours):
 
Tides and Currents Weather Stations Pressure Air Temp Water Temp Dewpoint Dewpoint Depression Visibility Wind Speed Wind Dir Waves Ship Positions

Scf Progress

Last reported at 2018-Feb-08 17:30 UTC. Time now 2018-Feb-23 22:43 UTC.
Position N 09°17' W 079°55'.
Warning: this ship's position is 15 days out of date.

Length 228 m; draft 12 m.

Type: Tanker. MMSI: 636015052.

Date/timePositionNaut miles runAvg speedWind from/ knotsBaromVisibWave heightAir tempDewpointWater temp
2018-Feb-08 17:30N 09°17' W 079°55'0 0.5
2018-Feb-08 17:00N 09°17' W 079°55'3 3.4
2018-Feb-08 16:00N 09°21' W 079°55'6 5.8
2018-Feb-08 15:00N 09°26' W 079°56'1 0.0
2018-Feb-08 01:08N 09°26' W 079°57'0 0.0
2018-Feb-08 00:44N 09°26' W 079°57'0 0.0
2018-Feb-08 00:26N 09°26' W 079°57'0 0.1
2018-Feb-07 23:59N 09°26' W 079°57'0 0.6
2018-Feb-07 23:30N 09°26' W 079°57'3 5.7
2018-Feb-07 23:00N 09°28' W 079°54'611.3
2018-Feb-07 22:30N 09°33' W 079°52'148128.9
2018-Feb-05 19:15N 29°42' W 094°60'  
2018-Feb-02 11:15N 29°28' W 094°51'311.2
2018-Feb-02 11:00N 29°30' W 094°52'510.6
2018-Feb-02 10:30N 29°34' W 094°56'510.1
2018-Feb-02 10:00N 29°39' W 094°58'5 9.1
2018-Feb-02 09:30N 29°43' W 095°01'3 6.8
2018-Feb-02 09:00N 29°45' W 095°04'2 0.1
2018-Feb-01 08:47N 29°45' W 095°06'0 0.0
2018-Jan-31 10:23N 29°45' W 095°06'0 0.0
2018-Jan-31 08:47N 29°45' W 095°06'0 0.0
2018-Jan-31 08:23N 29°45' W 095°06'0 0.0
2018-Jan-31 07:53N 29°45' W 095°06'0 0.0
2018-Jan-31 07:14N 29°45' W 095°06'0 0.0
2018-Jan-31 06:59N 29°45' W 095°06'0 0.0
2018-Jan-31 03:26N 29°45' W 095°06'0 0.0
2018-Jan-31 03:00N 29°45' W 095°06'1 2.8
2018-Jan-31 02:30N 29°46' W 095°05'4 7.6
2018-Jan-31 02:00N 29°44' W 095°01'4 8.6
2018-Jan-31 01:30N 29°40' W 094°59'612.0
2018-Jan-31 01:01N 29°35' W 094°56'1514.6
2018-Jan-31 00:00N 29°22' W 094°48'13 9.3
2018-Jan-30 22:36N 29°18' W 094°33'0 1.0
2018-Jan-30 22:26N 29°18' W 094°34'1 0.2
2018-Jan-30 16:18N 29°17' W 094°35'1 4.0
2018-Jan-30 16:00N 29°17' W 094°36'4 8.2
2018-Jan-30 15:30N 29°19' W 094°39'714.3
2018-Jan-30 15:00N 29°21' W 094°47'714.3
2018-Jan-30 14:30N 29°28' W 094°51'1312.5
2018-Jan-30 13:30N 29°39' W 094°58'510.3
2018-Jan-30 13:00N 29°43' W 095°01'2 3.2
2018-Jan-30 12:23N 29°44' W 095°03'  

Dump ship's entire track history